Time;durP1;ratioP1;P1;durP2;ratioP2;P2;SDS_P1;SDS_P2;PMS_P1;PMS_P2;Temp;Humidity;BMP_temperature;BMP_pressure;BME280_temperature;BME280_humidity;BME280_pressure;Samples;Min_cycle;Max_cycle;Signal;HPM_P1;HPM_P2
2024/01/25 00:00:13;;;;;;;9.00;2.00;;;;;;;6.25;79.36;98654.16;226893;1271;22568;-76
2024/01/25 00:05:14;;;;;;;5.60;1.40;;;;;;;6.31;78.97;98651.98;226892;1267;22567;-76
2024/01/25 00:10:18;;;;;;;5.10;1.80;;;;;;;6.34;78.65;98644.77;226833;1268;22546;-75
2024/01/25 00:15:20;;;;;;;7.60;1.80;;;;;;;6.38;78.14;98649.61;226838;1272;22549;-75
2024/01/25 00:20:22;;;;;;;6.00;1.80;;;;;;;6.41;77.83;98645.40;226867;1275;24239;-75
2024/01/25 00:25:25;;;;;;;5.40;1.60;;;;;;;6.41;77.74;98654.33;226798;1274;23333;-75
2024/01/25 00:30:27;;;;;;;8.30;1.90;;;;;;;6.41;77.74;98664.30;226901;1271;22611;-75
2024/01/25 00:35:30;;;;;;;5.90;2.30;;;;;;;6.41;77.74;98669.05;226817;1268;22540;-75
2024/01/25 00:40:32;;;;;;;4.60;1.90;;;;;;;6.39;77.24;98671.55;226803;1273;25301;-75
2024/01/25 00:45:35;;;;;;;6.80;1.80;;;;;;;6.38;77.53;98685.14;226835;1273;23074;-75
2024/01/25 00:50:38;;;;;;;7.20;1.40;;;;;;;6.39;77.54;98695.35;226772;1275;22543;-75
2024/01/25 00:55:41;;;;;;;7.30;1.60;;;;;;;6.40;77.33;98695.09;226822;1265;22528;-75
2024/01/25 01:00:43;;;;;;;5.50;1.40;;;;;;;6.40;77.31;98706.74;226799;1274;22573;-75
2024/01/25 01:05:46;;;;;;;6.30;1.90;;;;;;;6.40;77.34;98696.96;226828;1274;22650;-75
2024/01/25 01:10:48;;;;;;;7.60;1.70;;;;;;;6.39;77.24;98699.04;226788;1274;24778;-75
2024/01/25 01:15:50;;;;;;;5.70;1.80;;;;;;;6.37;77.40;98696.45;226914;1271;22601;-76
2024/01/25 01:20:53;;;;;;;7.00;1.30;;;;;;;6.34;76.72;98693.56;226662;1270;23806;-75
2024/01/25 01:25:54;;;;;;;3.50;1.20;;;;;;;6.33;77.49;98691.44;226755;1271;22549;-75
2024/01/25 01:30:56;;;;;;;5.30;1.30;;;;;;;6.29;77.40;98685.32;226813;1273;25375;-76
2024/01/25 01:35:58;;;;;;;5.00;1.30;;;;;;;6.28;77.05;98679.23;226736;1274;24516;-75
2024/01/25 01:41:00;;;;;;;4.80;1.40;;;;;;;6.25;76.69;98677.42;226776;1271;22539;-75
2024/01/25 01:46:13;;;;;;;4.90;1.20;;;;;;;6.22;77.15;98676.46;226604;1275;22565;-75
2024/01/25 01:51:15;;;;;;;5.10;1.20;;;;;;;6.22;76.72;98677.63;226818;1271;22568;-75
2024/01/25 01:56:18;;;;;;;4.10;1.30;;;;;;;6.20;76.90;98678.27;226825;1272;26015;-75
2024/01/25 02:01:20;;;;;;;7.10;1.80;;;;;;;6.21;76.77;98681.00;226762;1260;25103;-76
2024/01/25 02:06:26;;;;;;;4.60;1.70;;;;;;;6.21;76.45;98667.42;226791;1275;22569;-75
2024/01/25 02:11:29;;;;;;;4.80;1.40;;;;;;;6.21;76.45;98673.33;226879;1271;22547;-75
2024/01/25 02:16:30;;;;;;;6.20;1.30;;;;;;;6.22;75.58;98672.54;226744;1274;22561;-76
2024/01/25 02:21:33;;;;;;;5.70;1.70;;;;;;;6.27;74.80;98676.56;226791;1271;22520;-76
2024/01/25 02:26:36;;;;;;;6.00;1.50;;;;;;;6.32;74.12;98671.45;226734;1271;22591;-76
2024/01/25 02:31:38;;;;;;;4.20;1.20;;;;;;;6.36;73.82;98675.34;226790;1268;23063;-76
2024/01/25 02:36:40;;;;;;;8.60;1.40;;;;;;;6.41;73.05;98674.86;226764;1274;25968;-76
2024/01/25 02:41:42;;;;;;;7.60;1.80;;;;;;;6.42;73.47;98671.61;226725;1274;22641;-76
2024/01/25 02:46:44;;;;;;;6.30;1.60;;;;;;;6.35;73.18;98668.42;226801;1271;22603;-75
2024/01/25 02:51:46;;;;;;;6.00;1.30;;;;;;;6.29;73.33;98666.14;226746;1275;22550;-75
2024/01/25 02:56:48;;;;;;;5.80;1.30;;;;;;;6.22;73.50;98669.00;226792;1274;22551;-75
2024/01/25 03:01:53;;;;;;;7.80;1.20;;;;;;;6.19;73.73;98683.10;226745;1274;25490;-75
2024/01/25 03:06:55;;;;;;;5.30;1.10;;;;;;;6.20;73.63;98682.88;226551;1274;22539;-75
2024/01/25 03:11:58;;;;;;;4.80;1.20;;;;;;;6.21;73.60;98694.18;226715;1272;24913;-75
2024/01/25 03:17:00;;;;;;;7.10;1.30;;;;;;;6.18;74.05;98704.90;226784;1271;25453;-75
2024/01/25 03:22:02;;;;;;;7.20;2.00;;;;;;;6.17;73.81;98707.48;226510;1275;25310;-75
2024/01/25 03:27:04;;;;;;;5.10;1.30;;;;;;;6.19;73.55;98707.16;226794;1269;25242;-75
2024/01/25 03:32:06;;;;;;;6.80;1.60;;;;;;;6.18;73.81;98707.52;226792;1275;22558;-76
2024/01/25 03:37:08;;;;;;;7.40;1.90;;;;;;;6.16;73.43;98709.27;226809;1272;22590;-76
2024/01/25 03:42:10;;;;;;;5.40;1.00;;;;;;;6.19;73.51;98704.70;226838;1271;24252;-75
2024/01/25 03:47:12;;;;;;;6.10;1.10;;;;;;;6.16;73.87;98696.76;226777;1269;22566;-76
2024/01/25 03:52:14;;;;;;;5.80;1.30;;;;;;;6.11;73.36;98692.73;226755;1265;22563;-76
2024/01/25 03:57:16;;;;;;;5.00;1.10;;;;;;;6.06;73.31;98686.30;226742;1274;22577;-77
2024/01/25 04:02:18;;;;;;;9.60;1.90;;;;;;;5.99;73.78;98691.54;226603;1275;22557;-76
2024/01/25 04:07:21;;;;;;;3.50;0.90;;;;;;;5.93;73.71;98696.91;226744;1274;22551;-76
2024/01/25 04:12:24;;;;;;;3.30;0.90;;;;;;;5.87;74.10;98686.30;226537;1274;22768;-76
2024/01/25 04:17:26;;;;;;;5.30;1.50;;;;;;;5.83;74.29;98688.69;226729;1271;22559;-76
2024/01/25 04:22:28;;;;;;;6.50;1.70;;;;;;;5.78;74.68;98694.74;226775;1274;22554;-76
2024/01/25 04:27:31;;;;;;;4.00;1.30;;;;;;;5.77;74.87;98697.05;226789;1269;25272;-76
2024/01/25 04:32:34;;;;;;;5.00;1.30;;;;;;;5.76;75.22;98694.65;226809;1273;23028;-76
2024/01/25 04:37:36;;;;;;;5.50;1.00;;;;;;;5.76;75.00;98688.33;226756;1272;22554;-75
2024/01/25 04:42:38;;;;;;;4.80;1.10;;;;;;;5.78;75.12;98688.36;226714;1272;22531;-76
2024/01/25 04:47:40;;;;;;;6.30;1.50;;;;;;;5.79;75.08;98686.98;226774;1274;22550;-75
2024/01/25 04:52:42;;;;;;;6.40;1.80;;;;;;;5.80;74.73;98683.54;226714;1272;22543;-75
2024/01/25 04:57:44;;;;;;;3.70;1.30;;;;;;;5.82;74.84;98677.24;226742;1272;24232;-75
2024/01/25 05:02:47;;;;;;;6.30;1.50;;;;;;;5.79;74.90;98669.88;226848;1271;22544;-75
2024/01/25 05:07:49;;;;;;;4.90;1.50;;;;;;;5.74;74.57;98664.79;226763;1275;22599;-74
2024/01/25 05:12:51;;;;;;;4.90;1.10;;;;;;;5.72;74.93;98669.52;226623;1274;22566;-76
2024/01/25 05:17:53;;;;;;;7.50;1.70;;;;;;;5.72;75.10;98671.01;226783;1275;22550;-75
2024/01/25 05:22:55;;;;;;;5.70;1.70;;;;;;;5.72;75.24;98675.00;226746;1275;25965;-75
2024/01/25 05:27:58;;;;;;;4.90;1.00;;;;;;;5.72;75.19;98671.10;226769;1270;22547;-74
2024/01/25 05:33:00;;;;;;;5.20;1.30;;;;;;;5.69;75.42;98672.33;226783;1274;22554;-75
2024/01/25 05:38:03;;;;;;;8.80;1.60;;;;;;;5.61;75.30;98671.73;226555;1274;22549;-75
2024/01/25 05:43:05;;;;;;;7.70;1.50;;;;;;;5.55;75.67;98665.58;226736;1274;22539;-75
2024/01/25 05:48:07;;;;;;;7.80;2.10;;;;;;;5.50;75.66;98665.69;226679;1274;22544;-75
2024/01/25 05:53:09;;;;;;;9.60;1.60;;;;;;;5.49;75.96;98669.52;226740;1275;22561;-75
2024/01/25 05:58:11;;;;;;;4.50;1.40;;;;;;;5.48;75.67;98662.52;226541;1275;22546;-76
2024/01/25 06:03:13;;;;;;;6.40;2.10;;;;;;;5.45;75.98;98656.48;226718;1274;22543;-74
2024/01/25 06:08:15;;;;;;;3.60;1.50;;;;;;;5.42;76.10;98654.40;226732;1273;22578;-75
2024/01/25 06:13:17;;;;;;;8.60;2.70;;;;;;;5.41;75.70;98653.08;226729;1272;22546;-75
2024/01/25 06:18:19;;;;;;;7.10;2.70;;;;;;;5.40;75.93;98654.88;226725;1275;22547;-75
2024/01/25 06:23:25;;;;;;;7.50;3.40;;;;;;;5.43;75.62;98665.05;226731;1269;25258;-76
2024/01/25 06:28:26;;;;;;;8.20;1.90;;;;;;;5.49;75.81;98667.21;226667;1271;22543;-75
2024/01/25 06:33:29;;;;;;;8.10;1.60;;;;;;;5.53;75.91;98677.59;226718;1272;22565;-75
2024/01/25 06:38:31;;;;;;;6.70;1.80;;;;;;;5.57;75.64;98677.90;226771;1272;22534;-76
2024/01/25 06:43:32;;;;;;;5.50;1.70;;;;;;;5.57;76.08;98683.89;226703;1273;22566;-75
2024/01/25 06:48:35;;;;;;;8.80;2.00;;;;;;;5.58;76.20;98688.79;226500;1275;24244;-75
2024/01/25 06:53:38;;;;;;;8.80;2.60;;;;;;;5.60;75.98;98697.05;226654;1256;23776;-77
2024/01/25 06:58:40;;;;;;;7.60;1.90;;;;;;;5.62;75.78;98709.69;226477;1251;22563;-81
2024/01/25 07:03:44;;;;;;;8.70;1.90;;;;;;;5.67;75.75;98720.55;226369;1264;25310;-77
2024/01/25 07:08:50;;;;;;;6.80;1.80;;;;;;;5.72;75.73;98718.13;226488;1255;22552;-75
2024/01/25 07:13:53;;;;;;;6.10;2.50;;;;;;;5.76;75.89;98736.56;226441;1263;22601;-78
2024/01/25 07:18:55;;;;;;;7.10;2.10;;;;;;;5.71;76.24;98744.95;226297;1270;22551;-78
2024/01/25 07:23:59;;;;;;;4.40;1.60;;;;;;;5.60;76.88;98761.63;226355;1268;22531;-75
2024/01/25 07:29:01;;;;;;;5.90;1.80;;;;;;;5.50;77.28;98759.60;226226;1267;22606;-76
2024/01/25 07:34:03;;;;;;;5.20;1.80;;;;;;;5.43;77.30;98758.02;226184;1256;24279;-77
2024/01/25 07:39:06;;;;;;;7.90;2.50;;;;;;;5.42;77.45;98765.28;225927;1257;22547;-77
2024/01/25 07:44:08;;;;;;;20.20;14.10;;;;;;;5.45;76.85;98759.39;226336;1270;22569;-77
2024/01/25 07:49:12;;;;;;;6.70;2.10;;;;;;;5.52;77.23;98756.72;226321;1274;22550;-77
2024/01/25 07:54:15;;;;;;;5.70;2.20;;;;;;;5.59;76.88;98765.45;226444;1251;25274;-77
2024/01/25 07:59:17;;;;;;;6.90;1.90;;;;;;;5.62;76.65;98765.40;226452;1274;22722;-78
2024/01/25 08:04:19;;;;;;;10.10;2.00;;;;;;;5.66;76.43;98768.67;226368;1268;22554;-76
2024/01/25 08:09:21;;;;;;;8.80;1.90;;;;;;;5.71;76.82;98771.49;226367;1272;22552;-77
2024/01/25 08:14:23;;;;;;;9.00;1.60;;;;;;;5.76;76.13;98772.80;226015;1268;22564;-76
2024/01/25 08:19:25;;;;;;;6.10;1.60;;;;;;;5.83;75.89;98770.58;226061;1272;23466;-78
2024/01/25 08:24:27;;;;;;;8.70;2.90;;;;;;;5.92;75.29;98774.91;226222;1269;24286;-76
2024/01/25 08:29:29;;;;;;;7.70;1.90;;;;;;;5.99;74.90;98779.33;226433;1271;22543;-76
2024/01/25 08:34:31;;;;;;;6.80;1.60;;;;;;;6.05;74.78;98783.23;226050;1271;23682;-77
2024/01/25 08:39:34;;;;;;;6.20;1.90;;;;;;;6.14;74.22;98783.53;226426;1251;22519;-75
2024/01/25 08:44:39;;;;;;;8.90;2.20;;;;;;;6.24;72.93;98784.59;225865;1257;249342;-76
2024/01/25 08:49:41;;;;;;;7.40;2.10;;;;;;;6.31;73.07;98774.58;226125;1263;22563;-76
2024/01/25 08:54:44;;;;;;;12.40;2.30;;;;;;;6.33;72.22;98777.13;226417;1251;22572;-75
2024/01/25 08:59:46;;;;;;;10.00;2.70;;;;;;;6.35;72.14;98784.81;226280;1264;22582;-75
2024/01/25 09:04:49;;;;;;;10.40;2.30;;;;;;;6.36;72.28;98785.34;226436;1255;22546;-75
2024/01/25 09:09:51;;;;;;;11.60;2.50;;;;;;;6.39;71.99;98795.00;226220;1251;22545;-76
2024/01/25 09:14:53;;;;;;;5.50;1.90;;;;;;;6.41;71.64;98794.64;226192;1272;22547;-77
2024/01/25 09:19:58;;;;;;;8.20;2.20;;;;;;;6.48;71.21;98794.45;226074;1270;22532;-77
2024/01/25 09:25:01;;;;;;;9.10;1.70;;;;;;;6.50;71.08;98791.69;226144;1256;22589;-76
2024/01/25 09:30:06;;;;;;;9.90;2.50;;;;;;;6.52;71.02;98791.42;225963;1267;22556;-77
2024/01/25 09:35:09;;;;;;;6.40;1.90;;;;;;;6.54;70.75;98790.47;225815;1267;22537;-76
2024/01/25 09:40:12;;;;;;;6.00;1.60;;;;;;;6.57;70.88;98784.86;225946;1267;22548;-76
2024/01/25 09:45:18;;;;;;;6.10;1.70;;;;;;;6.62;70.24;98792.07;226350;1269;22546;-75
2024/01/25 09:50:20;;;;;;;9.00;2.00;;;;;;;6.66;69.47;98799.34;226191;1274;22553;-75
2024/01/25 09:55:26;;;;;;;10.30;2.30;;;;;;;6.70;69.41;98799.12;226545;1253;23043;-75
2024/01/25 10:00:28;;;;;;;5.60;2.10;;;;;;;6.71;69.72;98790.04;226377;1270;22567;-75
2024/01/25 10:05:33;;;;;;;6.50;2.00;;;;;;;6.74;69.52;98803.56;226560;1251;25513;-74
2024/01/25 10:10:35;;;;;;;11.50;3.20;;;;;;;6.76;69.30;98797.30;226542;1257;22589;-74
2024/01/25 10:15:38;;;;;;;7.40;1.80;;;;;;;6.75;69.31;98807.14;226668;1267;22554;-74
2024/01/25 10:20:42;;;;;;;9.60;2.90;;;;;;;6.75;69.69;98813.30;226690;1273;25423;-74
2024/01/25 10:25:45;;;;;;;11.50;2.00;;;;;;;6.76;69.80;98815.84;226595;1251;22570;-77
2024/01/25 10:30:47;;;;;;;7.90;2.10;;;;;;;6.83;69.91;98825.36;226477;1255;22547;-76
2024/01/25 10:35:51;;;;;;;9.00;2.30;;;;;;;6.88;70.12;98834.29;226446;1267;22956;-75
2024/01/25 10:40:54;;;;;;;8.30;2.00;;;;;;;6.90;69.96;98825.11;226570;1267;25269;-75
2024/01/25 10:45:58;;;;;;;9.80;1.90;;;;;;;6.91;69.61;98828.89;226649;1257;22556;-76
2024/01/25 10:51:05;;;;;;;7.30;2.10;;;;;;;6.92;69.35;98834.52;226728;1270;22934;-76
2024/01/25 10:56:07;;;;;;;7.50;1.90;;;;;;;6.94;69.15;98836.13;226710;1270;22551;-76
2024/01/25 11:01:13;;;;;;;10.10;2.20;;;;;;;6.95;68.58;98841.44;225415;1251;23267;-75
2024/01/25 11:06:21;;;;;;;7.30;1.80;;;;;;;6.94;68.35;98842.42;226220;1264;25310;-75
2024/01/25 11:11:24;;;;;;;9.00;1.80;;;;;;;6.93;68.47;98852.49;226272;1267;22563;-79
2024/01/25 11:16:31;;;;;;;9.60;2.10;;;;;;;6.96;68.14;98844.25;226176;1270;22556;-76
2024/01/25 11:21:41;;;;;;;5.60;2.00;;;;;;;7.01;67.57;98840.37;226236;1264;22685;-77
2024/01/25 11:26:47;;;;;;;7.20;1.70;;;;;;;7.03;68.19;98845.11;225835;1267;22575;-77
2024/01/25 11:31:51;;;;;;;6.40;1.60;;;;;;;6.99;68.08;98850.61;225934;1267;22544;-76
2024/01/25 11:36:53;;;;;;;6.30;1.80;;;;;;;6.90;68.33;98860.20;226298;1267;25337;-76
2024/01/25 11:41:55;;;;;;;10.40;1.90;;;;;;;6.80;68.76;98866.33;226420;1267;22538;-76
2024/01/25 11:46:57;;;;;;;8.30;2.10;;;;;;;6.67;69.45;98872.38;226763;1267;22566;-76
2024/01/25 11:52:02;;;;;;;9.10;2.00;;;;;;;6.57;69.71;98888.65;226504;1267;22553;-76
2024/01/25 11:57:05;;;;;;;9.90;1.80;;;;;;;6.54;70.12;98878.63;226601;1256;25346;-76
2024/01/25 12:02:07;;;;;;;8.50;2.00;;;;;;;6.57;69.30;98872.02;226671;1261;22545;-76
2024/01/25 12:07:09;;;;;;;6.30;1.50;;;;;;;6.58;69.97;98889.64;226608;1256;22566;-76
2024/01/25 12:12:12;;;;;;;8.30;2.00;;;;;;;6.55;69.98;98899.67;226478;1251;22548;-76
2024/01/25 12:17:14;;;;;;;7.70;2.40;;;;;;;6.51;70.07;98901.38;226269;1270;22568;-76
2024/01/25 12:22:21;;;;;;;8.90;2.20;;;;;;;6.43;70.44;98905.17;226620;1266;22559;-76
2024/01/25 12:27:25;;;;;;;4.70;1.50;;;;;;;6.38;70.59;98903.82;226647;1270;22580;-77
2024/01/25 12:32:27;;;;;;;8.00;2.30;;;;;;;6.36;70.74;98903.66;226332;1270;25021;-77
2024/01/25 12:37:29;;;;;;;10.10;2.10;;;;;;;6.35;70.78;98905.62;226484;1257;22640;-77
2024/01/25 12:42:32;;;;;;;7.90;1.70;;;;;;;6.39;71.10;98914.34;226416;1257;22558;-77
2024/01/25 12:47:34;;;;;;;7.10;2.00;;;;;;;6.43;70.22;98918.20;226425;1254;23267;-76
2024/01/25 12:52:37;;;;;;;5.60;1.90;;;;;;;6.46;70.25;98914.53;226617;1270;22526;-76
2024/01/25 12:57:39;;;;;;;4.50;1.40;;;;;;;6.49;69.98;98925.41;226430;1274;22549;-76
2024/01/25 13:02:41;;;;;;;5.70;1.60;;;;;;;6.50;69.98;98921.15;226462;1251;23045;-76
2024/01/25 13:07:43;;;;;;;3.90;1.40;;;;;;;6.46;69.91;98943.86;226638;1269;25361;-75
2024/01/25 13:12:45;;;;;;;6.40;2.00;;;;;;;6.43;70.13;98948.27;226623;1270;22558;-76
2024/01/25 13:17:48;;;;;;;9.90;1.80;;;;;;;6.40;70.27;98934.55;226682;1262;24379;-78
2024/01/25 13:22:50;;;;;;;6.40;1.80;;;;;;;6.37;70.72;98943.24;226628;1267;22555;-74
2024/01/25 13:27:51;;;;;;;5.00;1.60;;;;;;;6.34;71.78;98937.42;226664;1270;24280;-74
2024/01/25 13:32:54;;;;;;;8.10;2.20;;;;;;;6.36;71.51;98940.02;226564;1267;22538;-75
2024/01/25 13:38:00;;;;;;;7.70;2.20;;;;;;;6.35;71.32;98937.04;226435;1252;22693;-75
2024/01/25 13:43:04;;;;;;;10.50;2.40;;;;;;;6.34;71.70;98942.67;226551;1267;22547;-76
2024/01/25 13:48:06;;;;;;;10.60;2.20;;;;;;;6.33;71.95;98940.83;226368;1263;22547;-78
2024/01/25 13:53:08;;;;;;;9.60;2.60;;;;;;;6.32;71.65;98952.20;226383;1271;24247;-77
2024/01/25 13:58:11;;;;;;;8.60;2.70;;;;;;;6.30;71.51;98952.52;226663;1262;22546;-77
2024/01/25 14:03:16;;;;;;;8.20;2.70;;;;;;;6.29;71.53;98948.41;226315;1267;22648;-77
2024/01/25 14:08:19;;;;;;;11.00;2.70;;;;;;;6.29;71.70;98952.67;226370;1267;24810;-76
2024/01/25 14:13:21;;;;;;;8.60;2.80;;;;;;;6.29;71.31;98956.31;226294;1261;23960;-79
2024/01/25 14:18:23;;;;;;;11.40;2.20;;;;;;;6.30;71.18;98964.09;226526;1267;24275;-76
2024/01/25 14:23:25;;;;;;;8.70;2.40;;;;;;;6.33;70.25;98975.16;226375;1259;22546;-76
2024/01/25 14:28:28;;;;;;;8.70;2.10;;;;;;;6.33;70.33;98984.23;226392;1250;22542;-78
2024/01/25 14:33:30;;;;;;;9.60;2.30;;;;;;;6.34;70.10;98983.77;226247;1266;24267;-76
2024/01/25 14:38:33;;;;;;;8.60;1.80;;;;;;;6.35;70.00;98998.02;226302;1270;22588;-78
2024/01/25 14:43:37;;;;;;;9.90;2.80;;;;;;;6.34;69.93;98996.16;226312;1269;22587;-76
2024/01/25 14:48:39;;;;;;;8.20;2.00;;;;;;;6.34;69.74;99002.98;226334;1270;22537;-78
2024/01/25 14:53:42;;;;;;;5.80;1.80;;;;;;;6.33;69.85;99007.02;226435;1253;22566;-77
2024/01/25 14:58:45;;;;;;;5.80;1.80;;;;;;;6.31;69.64;99019.77;226066;1270;22594;-77
2024/01/25 15:03:48;;;;;;;5.00;1.70;;;;;;;6.29;69.60;99026.47;225973;1267;22586;-78
2024/01/25 15:08:52;;;;;;;6.40;2.20;;;;;;;6.27;69.26;99028.06;226026;1274;22563;-77
2024/01/25 15:13:54;;;;;;;8.80;2.30;;;;;;;6.25;69.72;99022.13;226646;1270;22579;-77
2024/01/25 15:18:57;;;;;;;8.60;2.00;;;;;;;6.24;69.64;99029.23;226647;1274;22578;-77
2024/01/25 15:23:59;;;;;;;7.60;2.50;;;;;;;6.20;69.35;99032.27;226578;1273;24279;-77
2024/01/25 15:29:01;;;;;;;8.60;2.00;;;;;;;6.17;69.96;99038.92;226544;1270;22566;-77
2024/01/25 15:34:04;;;;;;;6.20;2.10;;;;;;;6.13;69.72;99039.67;226648;1260;22572;-77
2024/01/25 15:39:07;;;;;;;8.90;2.30;;;;;;;6.10;69.82;99042.03;226814;1273;24192;-76
2024/01/25 15:44:10;;;;;;;7.30;2.00;;;;;;;6.08;70.02;99054.48;226856;1273;22565;-77
2024/01/25 15:49:12;;;;;;;9.10;2.00;;;;;;;6.05;70.13;99060.05;226753;1274;22537;-77
2024/01/25 15:54:15;;;;;;;7.50;1.80;;;;;;;6.00;70.20;99065.05;226767;1273;25518;-79
2024/01/25 15:59:17;;;;;;;9.20;2.40;;;;;;;5.98;70.24;99070.14;226717;1274;22543;-77
2024/01/25 16:04:19;;;;;;;5.90;1.70;;;;;;;5.95;70.24;99074.27;226689;1271;22530;-77
2024/01/25 16:09:22;;;;;;;9.50;2.00;;;;;;;5.93;70.53;99084.77;226749;1273;24248;-77
2024/01/25 16:14:24;;;;;;;5.00;1.80;;;;;;;5.91;70.35;99097.27;226695;1271;22554;-77
2024/01/25 16:19:26;;;;;;;6.70;2.10;;;;;;;5.89;70.60;99079.62;226881;1272;22547;-78
2024/01/25 16:24:28;;;;;;;7.50;2.20;;;;;;;5.87;70.38;99097.73;226745;1274;22550;-77
2024/01/25 16:29:30;;;;;;;7.30;2.20;;;;;;;5.86;70.47;99099.58;226758;1272;22553;-78
2024/01/25 16:34:32;;;;;;;9.60;2.50;;;;;;;5.85;70.48;99109.00;226732;1274;22922;-77
2024/01/25 16:39:34;;;;;;;10.70;2.50;;;;;;;5.84;70.46;99097.75;226733;1273;22535;-78
2024/01/25 16:44:36;;;;;;;9.40;2.80;;;;;;;5.83;71.13;99103.09;226942;1273;22554;-78
2024/01/25 16:49:38;;;;;;;9.50;3.00;;;;;;;5.81;70.77;99103.27;226780;1274;22970;-77
2024/01/25 16:54:41;;;;;;;10.30;2.40;;;;;;;5.80;71.23;99113.96;226938;1271;22551;-78
2024/01/25 16:59:43;;;;;;;7.70;2.30;;;;;;;5.81;71.64;99120.59;226873;1271;22652;-78
2024/01/25 17:04:45;;;;;;;9.20;2.50;;;;;;;5.80;71.77;99129.36;226794;1273;22542;-77
2024/01/25 17:09:48;;;;;;;8.90;2.80;;;;;;;5.79;71.87;99129.53;226830;1274;22548;-77
2024/01/25 17:14:52;;;;;;;11.70;2.90;;;;;;;5.78;72.05;99136.02;226754;1274;25389;-77
2024/01/25 17:19:54;;;;;;;10.30;2.70;;;;;;;5.80;72.45;99140.08;226967;1268;22572;-77
2024/01/25 17:24:56;;;;;;;9.10;2.30;;;;;;;5.79;72.34;99151.16;226683;1273;22551;-77
2024/01/25 17:29:58;;;;;;;8.20;2.30;;;;;;;5.79;72.04;99149.23;226784;1273;22542;-78
2024/01/25 17:35:01;;;;;;;12.80;2.60;;;;;;;5.79;72.09;99158.38;226748;1273;22756;-78
2024/01/25 17:40:04;;;;;;;9.70;2.70;;;;;;;5.76;72.50;99160.88;226571;1274;22568;-78
2024/01/25 17:45:06;;;;;;;7.30;2.90;;;;;;;5.74;72.90;99164.23;226699;1274;22610;-78
2024/01/25 17:50:09;;;;;;;11.70;2.30;;;;;;;5.71;72.82;99172.90;226873;1270;22550;-78
2024/01/25 17:55:11;;;;;;;11.30;2.50;;;;;;;5.67;73.38;99174.49;226822;1269;22546;-78
2024/01/25 18:00:14;;;;;;;8.30;2.20;;;;;;;5.64;73.65;99168.92;226734;1270;22536;-78
2024/01/25 18:05:16;;;;;;;8.50;2.20;;;;;;;5.61;73.88;99170.27;226831;1274;23789;-78
2024/01/25 18:10:19;;;;;;;11.60;3.10;;;;;;;5.57;74.15;99169.93;226594;1274;24302;-76
2024/01/25 18:15:21;;;;;;;8.70;2.60;;;;;;;5.52;74.46;99178.02;226761;1274;22587;-76
2024/01/25 18:20:23;;;;;;;10.10;2.70;;;;;;;5.46;74.83;99181.66;226692;1274;22629;-78
2024/01/25 18:25:25;;;;;;;10.20;2.20;;;;;;;5.39;75.28;99179.51;226788;1273;22675;-77
2024/01/25 18:30:27;;;;;;;10.10;2.80;;;;;;;5.33;75.49;99180.98;226840;1272;22632;-77
2024/01/25 18:35:29;;;;;;;12.00;2.70;;;;;;;5.26;75.70;99190.13;226572;1274;22544;-77
2024/01/25 18:40:31;;;;;;;11.90;2.90;;;;;;;5.23;76.21;99179.95;226707;1274;24368;-77
2024/01/25 18:45:33;;;;;;;7.70;2.50;;;;;;;5.23;76.16;99184.66;226609;1274;22547;-76
2024/01/25 18:50:36;;;;;;;13.40;2.50;;;;;;;5.24;76.41;99187.40;226850;1274;22558;-77
2024/01/25 18:55:38;;;;;;;9.30;2.70;;;;;;;5.23;76.35;99190.27;226968;1272;22610;-77
2024/01/25 19:00:40;;;;;;;11.80;2.50;;;;;;;5.22;76.23;99193.46;226911;1268;22611;-77
2024/01/25 19:05:44;;;;;;;12.70;2.90;;;;;;;5.21;76.74;99194.77;226690;1273;23280;-77
2024/01/25 19:10:48;;;;;;;10.60;2.60;;;;;;;5.19;76.59;99205.86;226764;1268;24255;-78
2024/01/25 19:15:50;;;;;;;10.50;3.20;;;;;;;5.18;76.77;99212.75;226639;1274;22557;-76
2024/01/25 19:20:52;;;;;;;12.00;2.60;;;;;;;5.19;76.72;99216.72;226709;1273;22547;-78
2024/01/25 19:25:56;;;;;;;10.00;2.90;;;;;;;5.20;76.54;99214.13;226762;1274;22596;-77
2024/01/25 19:30:59;;;;;;;8.40;2.50;;;;;;;5.20;76.89;99224.11;226917;1274;22555;-77
2024/01/25 19:36:01;;;;;;;10.80;3.10;;;;;;;5.18;76.79;99223.05;226644;1274;22546;-77
2024/01/25 19:41:06;;;;;;;8.30;2.90;;;;;;;5.16;76.97;99234.75;226660;1274;22546;-79
2024/01/25 19:46:08;;;;;;;12.30;3.40;;;;;;;5.15;76.91;99228.77;227075;1272;25246;-78
2024/01/25 19:51:10;;;;;;;12.10;3.20;;;;;;;5.13;77.04;99224.06;226953;1273;24226;-77
2024/01/25 19:56:13;;;;;;;9.60;3.40;;;;;;;5.12;77.01;99230.26;226924;1268;24848;-76
2024/01/25 20:01:18;;;;;;;7.80;3.10;;;;;;;5.11;76.96;99236.11;226800;1272;25290;-77
2024/01/25 20:06:22;;;;;;;11.70;3.30;;;;;;;5.10;77.04;99236.21;226888;1274;22598;-78
2024/01/25 20:11:24;;;;;;;13.20;3.30;;;;;;;5.10;77.33;99235.17;226812;1273;22924;-76
2024/01/25 20:16:26;;;;;;;9.10;2.60;;;;;;;5.10;77.22;99232.19;226823;1274;22539;-77
2024/01/25 20:21:28;;;;;;;9.60;2.80;;;;;;;5.09;77.33;99251.65;226664;1274;22543;-76
2024/01/25 20:26:30;;;;;;;14.30;3.40;;;;;;;5.10;77.15;99246.52;226840;1273;23765;-77
2024/01/25 20:31:32;;;;;;;9.90;2.80;;;;;;;5.09;77.29;99250.14;226815;1274;22542;-78
2024/01/25 20:36:34;;;;;;;8.40;3.00;;;;;;;5.08;77.05;99258.55;226995;1274;22539;-77
2024/01/25 20:41:36;;;;;;;12.50;3.40;;;;;;;5.08;77.36;99265.41;226536;1274;182118;-77
2024/01/25 20:46:39;;;;;;;9.40;3.10;;;;;;;5.07;77.13;99265.58;226872;1266;22550;-77
2024/01/25 20:51:41;;;;;;;11.70;3.70;;;;;;;5.07;77.20;99273.81;226664;1274;22570;-77
2024/01/25 20:56:43;;;;;;;11.90;3.80;;;;;;;5.07;77.26;99272.11;226862;1273;22561;-77
2024/01/25 21:01:46;;;;;;;11.30;3.30;;;;;;;5.06;77.55;99275.80;226682;1274;22608;-76
2024/01/25 21:06:49;;;;;;;10.10;3.10;;;;;;;5.06;77.39;99281.26;226673;1274;22560;-77
2024/01/25 21:11:52;;;;;;;11.20;2.80;;;;;;;5.04;77.35;99285.29;226637;1274;22539;-78
2024/01/25 21:16:55;;;;;;;8.60;2.30;;;;;;;5.04;77.33;99292.14;226665;1274;22547;-77
2024/01/25 21:21:59;;;;;;;9.70;2.70;;;;;;;5.03;77.07;99289.61;226964;1273;22589;-78
2024/01/25 21:27:01;;;;;;;11.50;3.10;;;;;;;5.01;77.19;99282.08;226705;1274;22542;-78
2024/01/25 21:32:04;;;;;;;10.20;2.60;;;;;;;4.99;77.51;99296.92;226731;1273;22551;-78
2024/01/25 21:37:06;;;;;;;11.40;3.30;;;;;;;4.98;77.38;99303.99;226893;1271;24298;-77
2024/01/25 21:42:08;;;;;;;9.20;2.80;;;;;;;4.96;77.44;99310.95;226675;1271;22555;-78
2024/01/25 21:47:10;;;;;;;13.20;3.00;;;;;;;4.91;78.11;99316.63;226789;1274;22542;-77
2024/01/25 21:52:14;;;;;;;8.50;2.20;;;;;;;4.83;78.28;99314.64;226885;1271;22541;-77
2024/01/25 21:57:20;;;;;;;16.30;3.10;;;;;;;4.74;78.78;99318.70;226914;1274;22552;-77
2024/01/25 22:02:23;;;;;;;13.60;3.50;;;;;;;4.66;78.97;99323.27;226862;1273;22539;-76
2024/01/25 22:07:29;;;;;;;11.70;3.30;;;;;;;4.59;79.09;99323.35;226989;1274;22534;-77
2024/01/25 22:12:31;;;;;;;11.70;2.80;;;;;;;4.55;79.31;99327.89;226956;1270;22551;-78
2024/01/25 22:17:33;;;;;;;11.60;2.90;;;;;;;4.55;78.89;99338.02;226709;1274;24366;-77
2024/01/25 22:22:35;;;;;;;7.80;2.50;;;;;;;4.58;78.95;99336.41;226665;1274;23279;-77
2024/01/25 22:27:38;;;;;;;9.60;2.20;;;;;;;4.59;79.09;99344.48;226600;1274;22552;-77
2024/01/25 22:32:40;;;;;;;8.70;2.70;;;;;;;4.58;79.13;99343.41;226615;1274;22550;-78
2024/01/25 22:37:42;;;;;;;11.20;2.80;;;;;;;4.55;79.26;99349.73;226839;1274;22611;-77
2024/01/25 22:42:44;;;;;;;9.30;2.80;;;;;;;4.51;79.17;99351.65;226621;1274;22632;-77
2024/01/25 22:47:46;;;;;;;8.50;2.80;;;;;;;4.47;79.18;99348.33;226734;1274;22544;-78
2024/01/25 22:52:48;;;;;;;9.70;2.40;;;;;;;4.43;79.15;99350.46;226828;1273;22562;-77
2024/01/25 22:57:51;;;;;;;11.60;2.50;;;;;;;4.42;79.55;99356.81;226880;1274;25301;-78
2024/01/25 23:02:53;;;;;;;9.90;2.90;;;;;;;4.36;79.70;99354.53;226847;1274;22488;-78
2024/01/25 23:07:55;;;;;;;9.00;2.60;;;;;;;4.31;79.84;99356.04;226862;1274;22522;-77
2024/01/25 23:12:59;;;;;;;9.50;2.50;;;;;;;4.28;80.04;99366.98;226648;1274;22528;-76
2024/01/25 23:18:01;;;;;;;9.40;2.70;;;;;;;4.23;80.41;99361.09;226933;1273;22550;-77
2024/01/25 23:23:04;;;;;;;6.80;2.30;;;;;;;4.20;80.26;99370.13;226742;1274;22571;-77
2024/01/25 23:28:06;;;;;;;8.60;2.30;;;;;;;4.20;80.41;99398.48;226865;1274;22537;-77
2024/01/25 23:33:09;;;;;;;9.90;2.40;;;;;;;4.15;80.18;99394.05;226632;1274;22554;-77
2024/01/25 23:38:11;;;;;;;8.40;2.80;;;;;;;4.09;80.33;99394.95;226851;1274;22902;-76